createdAt,value
2023-05-20T00:00:24.028Z,92.40
2023-05-20T00:02:53.465Z,92.40
2023-05-20T00:05:22.890Z,92.20
2023-05-20T00:07:52.208Z,92.20
2023-05-20T00:10:21.574Z,91.90
2023-05-20T00:12:50.953Z,91.90
2023-05-20T00:15:20.471Z,92.00
2023-05-20T00:17:49.852Z,92.10
2023-05-20T00:20:19.580Z,92.20
2023-05-20T00:22:48.940Z,92.10
2023-05-20T00:25:18.444Z,92.20
2023-05-20T00:27:48.366Z,92.20
2023-05-20T00:30:17.925Z,92.10
2023-05-20T00:32:47.536Z,91.90
2023-05-20T00:35:16.954Z,91.90
2023-05-20T00:37:46.408Z,91.90
2023-05-20T00:40:17.321Z,92.00
2023-05-20T00:42:46.795Z,91.90
2023-05-20T00:45:16.126Z,91.90
2023-05-20T00:47:46.719Z,91.90
2023-05-20T00:50:16.545Z,91.70
2023-05-20T00:52:49.213Z,91.50
2023-05-20T00:55:18.790Z,91.50
2023-05-20T00:57:48.898Z,91.50
2023-05-20T01:00:19.289Z,91.70
2023-05-20T01:02:48.971Z,91.40
2023-05-20T01:05:18.459Z,91.50
2023-05-20T01:07:48.087Z,91.40
2023-05-20T01:10:17.631Z,91.40
2023-05-20T01:12:57.494Z,91.50
2023-05-20T01:15:29.966Z,91.40
2023-05-20T01:18:19.480Z,91.30
2023-05-20T01:20:59.987Z,91.10
2023-05-20T01:23:48.824Z,91.30
2023-05-20T01:26:19.852Z,91.20
2023-05-20T01:28:54.658Z,91.10
2023-05-20T01:31:34.175Z,91.00
2023-05-20T01:34:10.160Z,91.00
2023-05-20T01:36:41.633Z,90.90
2023-05-20T01:39:11.812Z,91.20
2023-05-20T01:41:42.954Z,91.10
2023-05-20T01:44:15.695Z,90.90
2023-05-20T01:46:53.617Z,90.90
2023-05-20T01:49:23.212Z,90.50
2023-05-20T01:51:52.724Z,90.70
2023-05-20T01:54:22.467Z,90.60
2023-05-20T01:56:52.425Z,90.60
2023-05-20T01:59:21.824Z,90.60
2023-05-20T02:01:51.748Z,91.10
2023-05-20T02:04:23.584Z,90.60
2023-05-20T02:06:53.046Z,90.60
2023-05-20T02:09:22.319Z,90.60
2023-05-20T02:11:51.681Z,90.40
2023-05-20T02:14:21.047Z,90.00
2023-05-20T02:16:50.496Z,90.00
2023-05-20T02:19:24.607Z,89.90
2023-05-20T02:21:54.037Z,89.60
2023-05-20T02:24:23.435Z,89.50
2023-05-20T02:26:54.845Z,88.70
2023-05-20T02:29:24.238Z,88.00
2023-05-20T02:31:54.825Z,87.40
2023-05-20T02:34:32.462Z,88.00
2023-05-20T02:37:02.469Z,88.20
2023-05-20T02:39:35.869Z,88.20
2023-05-20T02:42:08.008Z,87.90
2023-05-20T02:44:37.344Z,86.30
2023-05-20T02:47:07.320Z,86.70
2023-05-20T02:49:36.930Z,87.10
2023-05-20T02:52:06.773Z,87.00
2023-05-20T02:54:36.741Z,86.80
2023-05-20T02:57:06.342Z,86.60
2023-05-20T02:59:35.730Z,85.40
2023-05-20T03:04:48.749Z,84.50
2023-05-20T03:07:26.548Z,84.50
2023-05-20T03:09:56.177Z,84.90
2023-05-20T03:12:27.338Z,85.10
2023-05-20T03:14:56.709Z,84.80
2023-05-20T03:17:26.134Z,84.30
2023-05-20T03:19:55.832Z,84.20
2023-05-20T03:22:25.101Z,84.00
2023-05-20T03:24:54.459Z,83.50
2023-05-20T03:27:23.905Z,83.30
2023-05-20T03:29:57.970Z,83.50
2023-05-20T03:32:34.698Z,83.40
2023-05-20T03:35:06.135Z,83.20
2023-05-20T03:37:37.088Z,83.30
2023-05-20T03:40:07.330Z,83.70
2023-05-20T03:42:37.334Z,82.70
2023-05-20T03:45:10.468Z,82.70
2023-05-20T03:47:39.956Z,81.60
2023-05-20T03:50:12.473Z,81.60
2023-05-20T03:52:42.426Z,81.50
2023-05-20T03:55:16.416Z,81.40
2023-05-20T03:57:52.111Z,81.40
2023-05-20T04:00:21.579Z,81.20
2023-05-20T04:02:51.225Z,80.80
2023-05-20T04:05:20.953Z,80.10
2023-05-20T04:07:50.822Z,80.40
2023-05-20T04:10:27.091Z,80.00
2023-05-20T04:12:56.621Z,80.00
2023-05-20T04:15:26.757Z,79.50
2023-05-20T04:17:57.070Z,78.60
2023-05-20T04:20:26.735Z,79.20
2023-05-20T04:23:00.106Z,79.10
2023-05-20T04:25:31.562Z,78.60
2023-05-20T04:28:02.455Z,77.80
2023-05-20T04:30:34.528Z,76.70
2023-05-20T04:33:07.325Z,76.40
2023-05-20T04:35:38.690Z,76.90
2023-05-20T04:38:08.553Z,76.60
2023-05-20T04:40:40.108Z,76.50
2023-05-20T04:43:09.532Z,75.90
2023-05-20T04:45:39.044Z,75.60
2023-05-20T04:48:15.217Z,74.90
2023-05-20T04:50:45.542Z,75.30
2023-05-20T04:53:15.408Z,74.70
2023-05-20T04:55:45.884Z,74.30
2023-05-20T04:58:21.455Z,73.00
2023-05-20T05:00:51.375Z,73.20
2023-05-20T05:03:20.940Z,73.20
2023-05-20T05:05:50.453Z,72.90
2023-05-20T05:08:19.793Z,73.50
2023-05-20T05:10:49.305Z,72.70
2023-05-20T05:13:21.462Z,72.40
2023-05-20T05:16:00.631Z,71.50
2023-05-20T05:18:30.353Z,71.10
2023-05-20T05:21:13.560Z,71.00
2023-05-20T05:23:43.680Z,70.70
2023-05-20T05:26:13.124Z,69.40
2023-05-20T05:28:47.218Z,71.00
2023-05-20T05:31:16.619Z,69.50
2023-05-20T05:33:45.966Z,70.00
2023-05-20T05:36:15.426Z,70.70
2023-05-20T05:38:46.040Z,69.50
2023-05-20T05:41:15.450Z,69.60
2023-05-20T05:43:44.765Z,68.80
2023-05-20T05:46:14.192Z,67.70
2023-05-20T05:48:44.155Z,67.80
2023-05-20T05:51:13.464Z,67.70
2023-05-20T05:53:43.203Z,67.90
2023-05-20T05:56:13.033Z,67.80
2023-05-20T05:58:42.437Z,67.00
2023-05-20T06:01:11.799Z,65.20
2023-05-20T06:03:41.301Z,66.80
2023-05-20T06:06:10.704Z,66.40
2023-05-20T06:08:40.021Z,65.90
2023-05-20T06:11:11.390Z,65.50
2023-05-20T06:13:40.870Z,64.50
2023-05-20T06:16:10.295Z,64.20
2023-05-20T06:18:39.693Z,65.30
2023-05-20T06:21:09.054Z,65.20
2023-05-20T06:23:38.325Z,65.20
2023-05-20T06:26:07.714Z,64.40
2023-05-20T06:28:37.153Z,63.20
2023-05-20T06:31:07.340Z,63.50
2023-05-20T06:33:37.749Z,63.30
2023-05-20T06:36:07.225Z,64.20
2023-05-20T06:38:36.698Z,63.80
2023-05-20T06:41:06.398Z,64.00
2023-05-20T06:43:35.745Z,63.20
2023-05-20T06:46:05.423Z,63.50
2023-05-20T06:48:34.902Z,63.30
2023-05-20T06:51:05.568Z,63.60
2023-05-20T06:53:36.201Z,63.20
2023-05-20T06:56:05.657Z,62.70
2023-05-20T06:58:35.539Z,63.00
2023-05-20T07:01:05.012Z,63.00
2023-05-20T07:03:34.414Z,63.30
2023-05-20T07:06:03.992Z,64.10
2023-05-20T07:08:33.359Z,63.50
2023-05-20T07:11:14.220Z,64.20
2023-05-20T07:13:43.599Z,63.90
2023-05-20T07:16:12.937Z,63.50
2023-05-20T07:18:42.410Z,63.00
2023-05-20T07:21:11.823Z,62.60
2023-05-20T07:23:41.405Z,62.30
2023-05-20T07:26:10.743Z,62.00
2023-05-20T07:28:41.208Z,62.40
2023-05-20T07:31:10.555Z,61.80
2023-05-20T07:33:40.047Z,61.80
2023-05-20T07:36:11.068Z,61.50
2023-05-20T07:38:56.483Z,62.20
2023-05-20T07:41:30.613Z,61.60
2023-05-20T07:43:59.934Z,62.20
2023-05-20T07:46:29.321Z,62.70
2023-05-20T07:48:58.980Z,62.40
2023-05-20T07:51:28.533Z,62.10
2023-05-20T07:53:58.282Z,62.50
2023-05-20T07:56:27.710Z,62.30
2023-05-20T07:59:00.987Z,62.50
2023-05-20T08:01:30.713Z,61.80
2023-05-20T08:04:00.270Z,62.10
2023-05-20T08:06:30.040Z,62.00
2023-05-20T08:08:59.529Z,61.60
2023-05-20T08:11:29.135Z,61.30
2023-05-20T08:13:58.540Z,61.70
2023-05-20T08:16:27.882Z,61.60
2023-05-20T08:18:57.312Z,61.40
2023-05-20T08:21:26.695Z,62.00
2023-05-20T08:23:56.351Z,61.20
2023-05-20T08:26:25.646Z,61.70
2023-05-20T08:28:55.008Z,60.90
2023-05-20T08:31:24.404Z,60.90
2023-05-20T08:33:53.827Z,61.10
2023-05-20T08:36:23.274Z,60.60
2023-05-20T08:38:53.931Z,60.90
2023-05-20T08:41:23.743Z,61.40
2023-05-20T08:43:54.801Z,61.20
2023-05-20T08:46:25.115Z,60.80
2023-05-20T08:48:54.518Z,60.70
2023-05-20T08:51:28.204Z,61.10
2023-05-20T08:53:58.292Z,60.30
2023-05-20T08:56:31.119Z,60.30
2023-05-20T08:59:00.904Z,60.00
2023-05-20T09:01:30.406Z,60.10
2023-05-20T09:04:06.301Z,60.60
2023-05-20T09:06:50.770Z,60.10
2023-05-20T09:09:31.310Z,60.30
2023-05-20T09:12:05.288Z,60.00
2023-05-20T09:14:35.027Z,60.10
2023-05-20T09:17:05.940Z,60.20
2023-05-20T09:19:35.983Z,60.70
2023-05-20T09:22:07.111Z,59.70
2023-05-20T09:24:36.547Z,60.00
2023-05-20T09:27:06.450Z,60.40
2023-05-20T09:29:36.208Z,60.50
2023-05-20T09:32:14.067Z,61.10
2023-05-20T09:34:56.643Z,60.80
2023-05-20T09:37:31.968Z,60.00
2023-05-20T09:40:10.648Z,60.50
2023-05-20T09:42:58.600Z,60.20
2023-05-20T09:45:28.238Z,60.30
2023-05-20T09:47:59.140Z,59.80
2023-05-20T09:50:29.921Z,60.20
2023-05-20T09:53:04.886Z,60.70
2023-05-20T09:55:35.456Z,60.30
2023-05-20T09:58:05.700Z,60.50
2023-05-20T10:00:35.600Z,60.40
2023-05-20T10:03:05.760Z,60.60
2023-05-20T10:05:43.247Z,60.70
2023-05-20T10:08:49.995Z,61.50
2023-05-20T10:11:37.823Z,61.60
2023-05-20T10:14:33.481Z,61.50
2023-05-20T10:17:30.214Z,61.20
2023-05-20T10:20:05.890Z,61.50
2023-05-20T10:22:36.030Z,61.00
2023-05-20T10:25:11.202Z,61.50
2023-05-20T10:27:49.401Z,61.50
2023-05-20T10:30:23.863Z,61.70
2023-05-20T10:33:06.011Z,61.70
2023-05-20T10:35:35.474Z,61.70
2023-05-20T10:38:14.486Z,61.80
2023-05-20T10:40:44.446Z,61.40
2023-05-20T10:43:27.632Z,61.80
2023-05-20T10:46:04.828Z,62.10
2023-05-20T10:48:36.053Z,62.30
2023-05-20T10:51:06.061Z,62.20
2023-05-20T10:53:46.729Z,62.40
2023-05-20T10:56:25.229Z,62.50
2023-05-20T10:58:58.001Z,63.40
2023-05-20T11:01:28.979Z,63.20
2023-05-20T11:04:02.576Z,63.20
2023-05-20T11:06:42.020Z,63.20
2023-05-20T11:09:27.648Z,63.50
2023-05-20T11:11:57.221Z,63.30
2023-05-20T11:14:29.323Z,63.40
2023-05-20T11:19:40.661Z,64.00
2023-05-20T11:22:10.538Z,64.00
2023-05-20T11:24:40.171Z,64.30
2023-05-20T11:27:15.479Z,64.70
2023-05-20T11:29:45.070Z,64.70
2023-05-20T11:32:15.065Z,64.90
2023-05-20T11:37:33.081Z,65.70
2023-05-20T11:40:11.035Z,65.70
2023-05-20T11:42:40.334Z,65.60
2023-05-20T11:45:15.446Z,66.00
2023-05-20T11:48:05.437Z,66.50
2023-05-20T11:50:45.678Z,66.60
2023-05-20T11:53:21.033Z,68.80
2023-05-20T11:56:01.423Z,67.60
2023-05-20T11:58:34.104Z,68.20
2023-05-20T12:01:17.944Z,68.20
2023-05-20T12:03:52.138Z,68.50
2023-05-20T12:06:23.077Z,69.50
2023-05-20T12:09:06.356Z,68.80
2023-05-20T12:11:47.748Z,69.30
2023-05-20T12:14:17.203Z,68.90
2023-05-20T12:16:46.787Z,68.90
2023-05-20T12:19:17.110Z,69.40
2023-05-20T12:21:48.466Z,70.60
2023-05-20T12:24:17.844Z,69.10
2023-05-20T12:26:47.214Z,69.70
2023-05-20T12:29:16.883Z,69.90
2023-05-20T12:31:50.544Z,69.40
2023-05-20T12:34:20.027Z,69.70
2023-05-20T12:36:49.629Z,70.00
2023-05-20T12:39:20.672Z,70.40
2023-05-20T12:41:50.393Z,70.20
2023-05-20T12:44:21.446Z,70.70
2023-05-20T12:46:50.824Z,70.50
2023-05-20T12:49:22.766Z,70.50
2023-05-20T12:51:52.231Z,70.20
2023-05-20T12:54:22.773Z,70.00
2023-05-20T12:56:52.276Z,70.30
2023-05-20T12:59:22.130Z,70.00
2023-05-20T13:01:51.523Z,71.20
2023-05-20T13:04:21.178Z,70.30
2023-05-20T13:06:50.755Z,70.40
2023-05-20T13:09:22.076Z,70.50
2023-05-20T13:11:51.475Z,69.90
2023-05-20T13:14:20.912Z,70.40
2023-05-20T13:16:55.525Z,70.90
2023-05-20T13:19:26.262Z,70.60
2023-05-20T13:22:02.612Z,70.20
2023-05-20T13:24:54.611Z,70.60
2023-05-20T13:27:24.213Z,71.10
2023-05-20T13:29:53.551Z,70.80
2023-05-20T13:32:27.976Z,71.10
2023-05-20T13:34:58.174Z,70.70
2023-05-20T13:37:27.922Z,70.80
2023-05-20T13:39:57.222Z,71.00
2023-05-20T13:42:26.458Z,71.10
2023-05-20T13:44:55.954Z,71.00
2023-05-20T13:47:28.088Z,71.00
2023-05-20T13:50:03.487Z,71.20
2023-05-20T13:52:35.722Z,71.50
2023-05-20T13:57:50.759Z,71.80
2023-05-20T14:00:20.218Z,72.10
2023-05-20T14:02:49.688Z,72.20
2023-05-20T14:05:20.076Z,71.70
2023-05-20T14:07:49.521Z,71.80
2023-05-20T14:10:19.003Z,72.00
2023-05-20T14:12:49.255Z,72.00
2023-05-20T14:15:18.704Z,72.00
2023-05-20T14:17:58.390Z,72.30
2023-05-20T14:20:29.540Z,72.30
2023-05-20T14:25:45.344Z,72.40
2023-05-20T14:28:23.577Z,72.70
2023-05-20T14:30:55.711Z,72.70
2023-05-20T14:33:28.365Z,72.80
2023-05-20T14:35:57.905Z,72.70
2023-05-20T14:38:30.541Z,73.10
2023-05-20T14:41:00.016Z,73.40
2023-05-20T14:43:29.561Z,73.10
2023-05-20T14:46:01.562Z,73.00
2023-05-20T14:48:31.000Z,73.00
2023-05-20T14:51:00.277Z,73.10
2023-05-20T14:53:29.587Z,73.00
2023-05-20T14:55:59.047Z,73.00
2023-05-20T14:58:28.547Z,73.00
2023-05-20T15:01:02.745Z,73.30
2023-05-20T15:03:32.800Z,73.20
2023-05-20T15:06:02.233Z,73.50
2023-05-20T15:08:31.709Z,73.70
2023-05-20T15:11:01.327Z,74.20
2023-05-20T15:13:30.736Z,73.60
2023-05-20T15:16:03.107Z,74.00
2023-05-20T15:18:35.445Z,74.00
2023-05-20T15:21:06.930Z,74.00
2023-05-20T15:23:36.301Z,74.20
2023-05-20T15:26:06.506Z,74.10
2023-05-20T15:28:38.920Z,74.00
2023-05-20T15:31:08.999Z,74.00
2023-05-20T15:33:38.650Z,74.30
2023-05-20T15:36:08.402Z,74.20
2023-05-20T15:38:37.794Z,74.30
2023-05-20T15:41:07.771Z,74.40
2023-05-20T15:43:37.303Z,74.50
2023-05-20T15:46:06.997Z,74.50
2023-05-20T15:48:38.858Z,74.90
2023-05-20T15:51:08.391Z,75.30
2023-05-20T15:53:39.373Z,75.40
2023-05-20T15:56:12.552Z,75.70
2023-05-20T15:58:42.162Z,75.80
2023-05-20T16:01:11.700Z,76.10
2023-05-20T16:03:41.882Z,76.30
2023-05-20T16:06:16.050Z,76.50
2023-05-20T16:08:48.464Z,76.90
2023-05-20T16:11:17.794Z,77.00
2023-05-20T16:13:47.114Z,77.20
2023-05-20T16:16:17.842Z,77.40
2023-05-20T16:18:48.643Z,77.20
2023-05-20T16:21:18.183Z,77.70
2023-05-20T16:23:47.696Z,78.00
2023-05-20T16:26:17.277Z,78.10
2023-05-20T16:28:46.660Z,78.30
2023-05-20T16:31:16.102Z,78.70
2023-05-20T16:33:45.843Z,78.70
2023-05-20T16:36:15.186Z,78.80
2023-05-20T16:38:44.570Z,79.20
2023-05-20T16:41:15.965Z,79.40
2023-05-20T16:43:45.750Z,79.30
2023-05-20T16:46:15.532Z,79.80
2023-05-20T16:48:45.173Z,79.80
2023-05-20T16:51:14.494Z,80.30
2023-05-20T16:53:43.897Z,80.10
2023-05-20T16:56:13.168Z,80.20
2023-05-20T16:58:42.704Z,80.70
2023-05-20T17:01:12.410Z,80.40
2023-05-20T17:03:41.957Z,80.70
2023-05-20T17:06:11.416Z,80.80
2023-05-20T17:08:40.898Z,80.80
2023-05-20T17:11:10.272Z,81.10
2023-05-20T17:13:42.527Z,81.30
2023-05-20T17:16:13.025Z,81.40
2023-05-20T17:18:42.774Z,81.70
2023-05-20T17:21:13.159Z,81.60
2023-05-20T17:23:43.842Z,81.80
2023-05-20T17:26:13.204Z,81.90
2023-05-20T17:28:42.700Z,82.10
2023-05-20T17:31:12.514Z,82.10
2023-05-20T17:33:41.889Z,82.30
2023-05-20T17:36:11.602Z,82.70
2023-05-20T17:38:40.933Z,82.90
2023-05-20T17:41:10.325Z,83.10
2023-05-20T17:43:39.655Z,83.10
2023-05-20T17:46:09.053Z,83.30
2023-05-20T17:48:38.523Z,83.50
2023-05-20T17:51:08.109Z,83.60
2023-05-20T17:53:37.419Z,83.70
2023-05-20T17:56:07.370Z,84.00
2023-05-20T17:58:42.027Z,84.40
2023-05-20T18:01:11.630Z,84.70
2023-05-20T18:03:41.740Z,85.00
2023-05-20T18:06:11.305Z,85.00
2023-05-20T18:08:40.769Z,85.50
2023-05-20T18:11:15.813Z,85.50
2023-05-20T18:13:45.659Z,85.80
2023-05-20T18:16:15.305Z,85.80
2023-05-20T18:18:45.197Z,85.90
2023-05-20T18:21:14.785Z,86.10
2023-05-20T18:23:44.108Z,86.20
2023-05-20T18:26:13.684Z,86.40
2023-05-20T18:28:43.352Z,86.30
2023-05-20T18:31:13.029Z,86.30
2023-05-20T18:33:42.649Z,86.70
2023-05-20T18:36:12.196Z,86.50
2023-05-20T18:38:42.091Z,86.70
2023-05-20T18:41:11.700Z,86.70
2023-05-20T18:43:41.080Z,86.80
2023-05-20T18:46:10.476Z,87.10
2023-05-20T18:48:39.850Z,87.30
2023-05-20T18:51:09.311Z,87.40
2023-05-20T18:53:38.706Z,87.40
2023-05-20T18:56:08.955Z,87.50
2023-05-20T18:58:38.363Z,87.70
2023-05-20T19:01:08.237Z,87.70
2023-05-20T19:03:38.113Z,88.00
2023-05-20T19:06:07.748Z,88.10
2023-05-20T19:08:37.366Z,87.90
2023-05-20T19:11:07.114Z,88.20
2023-05-20T19:13:36.635Z,88.00
2023-05-20T19:16:06.740Z,88.10
2023-05-20T19:18:37.269Z,88.30
2023-05-20T19:21:06.972Z,88.50
2023-05-20T19:23:36.364Z,88.70
2023-05-20T19:26:05.771Z,88.90
2023-05-20T19:28:35.258Z,88.90
2023-05-20T19:31:04.698Z,89.00
2023-05-20T19:33:34.124Z,89.30
2023-05-20T19:36:03.480Z,89.40
2023-05-20T19:38:32.812Z,89.30
2023-05-20T19:41:02.152Z,89.40
2023-05-20T19:43:31.738Z,89.80
2023-05-20T19:46:10.575Z,89.50
2023-05-20T19:48:39.999Z,89.90
2023-05-20T19:51:11.486Z,89.80
2023-05-20T19:53:40.943Z,89.70
2023-05-20T19:56:10.388Z,89.80
2023-05-20T19:58:39.797Z,89.90
2023-05-20T20:01:09.238Z,90.10
2023-05-20T20:03:38.669Z,90.00
2023-05-20T20:06:08.100Z,90.10
2023-05-20T20:08:40.478Z,90.00
2023-05-20T20:11:10.450Z,90.10
2023-05-20T20:13:39.804Z,90.20
2023-05-20T20:16:09.579Z,90.30
2023-05-20T20:18:39.153Z,90.10
2023-05-20T20:21:10.244Z,90.20
2023-05-20T20:23:40.244Z,90.20
2023-05-20T20:26:10.970Z,90.30
2023-05-20T20:28:40.619Z,90.40
2023-05-20T20:31:09.960Z,90.40
2023-05-20T20:33:39.293Z,90.60
2023-05-20T20:36:10.163Z,90.80
2023-05-20T20:38:39.718Z,90.80
2023-05-20T20:41:10.652Z,90.80
2023-05-20T20:43:39.996Z,90.90
2023-05-20T20:46:10.365Z,90.80
2023-05-20T20:48:39.789Z,90.90
2023-05-20T20:51:09.084Z,90.80
2023-05-20T20:53:38.461Z,91.10
2023-05-20T20:56:07.915Z,91.00
2023-05-20T20:58:38.678Z,91.10
2023-05-20T21:01:08.844Z,91.00
2023-05-20T21:03:41.331Z,91.10
2023-05-20T21:06:10.796Z,91.10
2023-05-20T21:08:40.534Z,91.10
2023-05-20T21:11:10.024Z,91.40
2023-05-20T21:13:40.653Z,91.20
2023-05-20T21:16:10.842Z,91.30
2023-05-20T21:18:40.659Z,91.20
2023-05-20T21:21:13.263Z,91.30
2023-05-20T21:23:43.212Z,91.70
2023-05-20T21:26:12.470Z,91.30
2023-05-20T21:28:41.876Z,91.40
2023-05-20T21:31:11.316Z,91.40
2023-05-20T21:33:41.153Z,91.40
2023-05-20T21:36:10.828Z,91.30
2023-05-20T21:38:40.313Z,91.10
2023-05-20T21:41:10.038Z,91.30
2023-05-20T21:43:39.540Z,91.20
2023-05-20T21:46:08.984Z,91.30
2023-05-20T21:48:38.332Z,91.30
2023-05-20T21:51:07.696Z,91.20
2023-05-20T21:53:36.980Z,91.20
2023-05-20T21:56:06.597Z,91.20
2023-05-20T21:58:41.818Z,91.30
2023-05-20T22:01:11.741Z,91.20
2023-05-20T22:03:41.231Z,91.20
2023-05-20T22:06:12.235Z,91.40
2023-05-20T22:08:42.005Z,91.60
2023-05-20T22:11:11.371Z,91.50
2023-05-20T22:13:42.726Z,91.50
2023-05-20T22:16:12.247Z,91.50
2023-05-20T22:18:42.421Z,91.50
2023-05-20T22:21:12.197Z,91.60
2023-05-20T22:23:42.810Z,91.60
2023-05-20T22:26:12.246Z,91.70
2023-05-20T22:28:41.624Z,91.70
2023-05-20T22:31:11.112Z,91.80
2023-05-20T22:33:42.394Z,92.00
2023-05-20T22:36:11.769Z,92.00
2023-05-20T22:38:41.069Z,92.00
2023-05-20T22:41:10.515Z,92.10
2023-05-20T22:43:39.939Z,92.10
2023-05-20T22:46:09.394Z,92.00
2023-05-20T22:48:38.815Z,92.10
2023-05-20T22:51:09.938Z,92.00
2023-05-20T22:53:39.405Z,92.10
2023-05-20T22:56:09.836Z,92.30
2023-05-20T22:58:40.765Z,92.30
2023-05-20T23:01:10.183Z,92.20
2023-05-20T23:03:41.185Z,92.40
2023-05-20T23:06:10.540Z,92.30
2023-05-20T23:08:39.914Z,92.30
2023-05-20T23:11:09.256Z,92.50
2023-05-20T23:13:38.658Z,92.40
2023-05-20T23:16:08.858Z,92.40
2023-05-20T23:18:38.918Z,92.50
2023-05-20T23:21:08.515Z,92.50
2023-05-20T23:23:37.848Z,92.50
2023-05-20T23:26:07.312Z,92.60
2023-05-20T23:28:36.681Z,92.60
2023-05-20T23:31:06.013Z,92.50
2023-05-20T23:33:35.445Z,92.40
2023-05-20T23:36:05.051Z,92.50
2023-05-20T23:38:34.468Z,92.60
2023-05-20T23:41:03.819Z,92.40
2023-05-20T23:43:33.157Z,92.40
2023-05-20T23:46:02.622Z,92.60
2023-05-20T23:48:31.921Z,92.50
2023-05-20T23:51:01.549Z,92.40
2023-05-20T23:53:31.167Z,92.50
2023-05-20T23:56:00.669Z,92.50
2023-05-20T23:58:29.974Z,92.50
